createdAt,value
2023-11-25T00:00:03.935Z,3.97
2023-11-25T00:00:14.908Z,3.97
2023-11-25T00:00:25.821Z,3.90
2023-11-25T00:00:36.419Z,3.98
2023-11-25T00:00:47.410Z,3.97
2023-11-25T00:00:58.175Z,3.96
2023-11-25T00:01:09.476Z,3.92
2023-11-25T00:01:19.934Z,3.94
2023-11-25T00:01:30.799Z,4.01
2023-11-25T00:01:41.456Z,3.97
2023-11-25T00:01:51.939Z,3.97
2023-11-25T00:02:02.814Z,4.03
2023-11-25T00:02:13.393Z,3.96
2023-11-25T00:02:24.422Z,3.97
2023-11-25T00:02:35.198Z,3.97
2023-11-25T00:02:46.201Z,3.97
2023-11-25T00:02:57.202Z,4.00
2023-11-25T00:03:07.942Z,4.00
2023-11-25T00:03:19.027Z,4.00
2023-11-25T00:03:29.999Z,4.00
2023-11-25T00:03:40.835Z,4.00
2023-11-25T00:03:51.286Z,3.97
2023-11-25T00:04:02.295Z,4.00
2023-11-25T00:04:13.037Z,4.00
2023-11-25T00:04:24.078Z,3.97
2023-11-25T00:04:35.067Z,4.01
2023-11-25T00:04:45.793Z,4.00
2023-11-25T00:04:56.848Z,4.00
2023-11-25T00:05:07.809Z,4.01
2023-11-25T00:05:18.584Z,3.97
2023-11-25T00:05:29.631Z,4.00
2023-11-25T00:05:40.601Z,4.04
2023-11-25T00:05:51.364Z,4.03
2023-11-25T00:06:02.406Z,4.04
2023-11-25T00:06:13.390Z,3.98
2023-11-25T00:06:24.162Z,4.01
2023-11-25T00:06:35.211Z,4.00
2023-11-25T00:06:46.171Z,3.98
2023-11-25T00:06:56.933Z,4.07
2023-11-25T00:07:08.013Z,4.00
2023-11-25T00:07:18.981Z,4.03
2023-11-25T00:07:29.776Z,4.07
2023-11-25T00:07:40.332Z,3.98
2023-11-25T00:07:51.257Z,4.00
2023-11-25T00:08:02.020Z,4.03
2023-11-25T00:08:13.068Z,3.97
2023-11-25T00:08:24.041Z,4.01
2023-11-25T00:08:34.801Z,4.01
2023-11-25T00:08:45.844Z,4.00
2023-11-25T00:08:56.813Z,4.04
2023-11-25T00:09:07.695Z,4.01
2023-11-25T00:09:18.137Z,3.98
2023-11-25T00:09:29.091Z,4.01
2023-11-25T00:09:39.862Z,4.03
2023-11-25T00:09:50.905Z,4.03
2023-11-25T00:10:01.925Z,4.00
2023-11-25T00:10:12.784Z,4.01
2023-11-25T00:10:23.839Z,3.98
2023-11-25T00:10:34.813Z,4.03
2023-11-25T00:10:45.732Z,4.01
2023-11-25T00:10:56.273Z,4.03
2023-11-25T00:11:14.707Z,4.07
2023-11-25T00:11:25.693Z,4.01
2023-11-25T00:11:30.381Z,4.00
2023-11-25T00:11:40.243Z,4.07
2023-11-25T00:11:51.007Z,4.06
2023-11-25T00:12:02.049Z,4.06
2023-11-25T00:12:13.022Z,3.94
2023-11-25T00:12:23.775Z,4.01
2023-11-25T00:12:34.820Z,4.04
2023-11-25T00:12:45.804Z,3.98
2023-11-25T00:12:56.555Z,4.03
2023-11-25T00:13:07.778Z,4.01
2023-11-25T00:13:18.233Z,4.01
2023-11-25T00:13:28.999Z,4.04
2023-11-25T00:13:40.038Z,4.00
2023-11-25T00:13:50.966Z,3.98
2023-11-25T00:14:01.732Z,4.04
2023-11-25T00:14:12.824Z,3.98
2023-11-25T00:14:23.742Z,3.98
2023-11-25T00:14:34.574Z,4.00
2023-11-25T00:14:45.560Z,3.96
2023-11-25T00:14:56.529Z,3.98
2023-11-25T00:15:07.292Z,4.03
2023-11-25T00:15:18.335Z,4.01
2023-11-25T00:15:29.302Z,3.96
2023-11-25T00:15:40.136Z,3.98
2023-11-25T00:15:50.767Z,4.03
2023-11-25T00:16:01.874Z,3.97
2023-11-25T00:16:12.659Z,3.97
2023-11-25T00:16:23.698Z,3.98
2023-11-25T00:16:34.736Z,4.00
2023-11-25T00:16:45.566Z,4.00
2023-11-25T00:16:56.232Z,4.00
2023-11-25T00:17:06.668Z,3.98
2023-11-25T00:17:17.436Z,4.01
2023-11-25T00:17:27.983Z,3.97
2023-11-25T00:17:39.002Z,4.01
2023-11-25T00:17:49.775Z,4.03
2023-11-25T00:18:00.811Z,4.01
2023-11-25T00:18:11.802Z,4.01
2023-11-25T00:18:22.549Z,4.03
2023-11-25T00:18:33.594Z,3.98
2023-11-25T00:18:44.562Z,4.04
2023-11-25T00:18:55.324Z,4.01
2023-11-25T00:19:06.451Z,4.03
2023-11-25T00:19:17.381Z,4.00
2023-11-25T00:19:28.144Z,4.01
2023-11-25T00:19:39.194Z,3.96
2023-11-25T00:19:50.136Z,4.03
2023-11-25T00:20:00.905Z,4.04
2023-11-25T00:20:11.938Z,4.00
2023-11-25T00:20:22.921Z,3.97
2023-11-25T00:20:33.678Z,4.04
2023-11-25T00:20:44.740Z,4.04
2023-11-25T00:20:55.700Z,4.00
2023-11-25T00:21:06.464Z,4.04
2023-11-25T00:21:17.507Z,4.01
2023-11-25T00:21:28.493Z,4.01
2023-11-25T00:21:39.279Z,3.98
2023-11-25T00:21:50.304Z,4.00
2023-11-25T00:22:01.279Z,3.97
2023-11-25T00:22:12.039Z,4.01
2023-11-25T00:22:23.108Z,3.98
2023-11-25T00:22:34.056Z,4.06
2023-11-25T00:22:44.805Z,4.00
2023-11-25T00:22:55.861Z,4.01
2023-11-25T00:23:06.821Z,3.96
2023-11-25T00:23:17.581Z,3.98
2023-11-25T00:23:28.629Z,3.96
2023-11-25T00:23:39.594Z,4.00
2023-11-25T00:23:50.358Z,3.98
2023-11-25T00:24:01.475Z,3.98
2023-11-25T00:24:12.375Z,3.97
2023-11-25T00:24:23.153Z,3.98
2023-11-25T00:24:34.193Z,4.00
2023-11-25T00:24:45.158Z,3.97
2023-11-25T00:24:55.934Z,3.97
2023-11-25T00:25:07.037Z,3.92
2023-11-25T00:25:17.992Z,3.92
2023-11-25T00:25:28.766Z,3.98
2023-11-25T00:25:39.810Z,3.90
2023-11-25T00:25:50.745Z,3.97
2023-11-25T00:26:01.525Z,3.97
2023-11-25T00:26:12.569Z,3.92
2023-11-25T00:26:23.528Z,3.96
2023-11-25T00:26:34.295Z,3.94
2023-11-25T00:26:45.336Z,3.86
2023-11-25T00:26:56.304Z,3.88
2023-11-25T00:27:07.067Z,3.92
2023-11-25T00:27:18.112Z,3.89
2023-11-25T00:27:29.074Z,3.96
2023-11-25T00:27:39.843Z,3.96
2023-11-25T00:27:50.885Z,3.92
2023-11-25T00:28:01.884Z,3.89
2023-11-25T00:28:12.677Z,3.90
2023-11-25T00:28:23.724Z,3.94
2023-11-25T00:28:34.718Z,3.89
2023-11-25T00:28:45.470Z,3.89
2023-11-25T00:28:56.487Z,3.89
2023-11-25T00:29:07.472Z,3.88
2023-11-25T00:29:18.227Z,3.94
2023-11-25T00:29:29.270Z,3.90
2023-11-25T00:29:40.235Z,3.88
2023-11-25T00:29:51.000Z,3.86
2023-11-25T00:30:02.055Z,3.89
2023-11-25T00:30:13.012Z,3.94
2023-11-25T00:30:23.778Z,3.97
2023-11-25T00:30:34.864Z,3.90
2023-11-25T00:30:45.832Z,3.96
2023-11-25T00:30:56.631Z,3.92
2023-11-25T00:31:07.872Z,3.92
2023-11-25T00:31:18.347Z,3.86
2023-11-25T00:31:29.137Z,3.90
2023-11-25T00:31:40.159Z,3.88
2023-11-25T00:31:51.102Z,3.94
2023-11-25T00:32:01.864Z,3.96
2023-11-25T00:32:12.906Z,3.92
2023-11-25T00:32:23.873Z,3.96
2023-11-25T00:32:34.666Z,3.90
2023-11-25T00:32:45.695Z,3.90
2023-11-25T00:32:56.716Z,3.94
2023-11-25T00:33:07.511Z,3.97
2023-11-25T00:33:18.027Z,4.00
2023-11-25T00:33:29.030Z,3.94
2023-11-25T00:33:39.813Z,3.92
2023-11-25T00:33:50.876Z,3.94
2023-11-25T00:34:01.961Z,3.94
2023-11-25T00:34:12.798Z,3.98
2023-11-25T00:34:23.296Z,3.96
2023-11-25T00:34:34.290Z,4.00
2023-11-25T00:34:45.032Z,4.01
2023-11-25T00:34:56.082Z,3.97
2023-11-25T00:35:07.176Z,4.00
2023-11-25T00:35:17.890Z,3.98
2023-11-25T00:35:28.934Z,3.96
2023-11-25T00:35:39.901Z,3.94
2023-11-25T00:35:50.664Z,3.98
2023-11-25T00:36:01.731Z,3.92
2023-11-25T00:36:12.724Z,3.98
2023-11-25T00:36:23.460Z,3.97
2023-11-25T00:36:34.515Z,3.94
2023-11-25T00:36:45.490Z,4.00
2023-11-25T00:36:56.255Z,3.97
2023-11-25T00:37:07.342Z,3.98
2023-11-25T00:37:18.319Z,3.96
2023-11-25T00:37:29.062Z,3.98
2023-11-25T00:37:40.105Z,3.94
2023-11-25T00:37:51.059Z,3.94
2023-11-25T00:38:01.838Z,4.00
2023-11-25T00:38:12.873Z,3.98
2023-11-25T00:38:23.855Z,4.00
2023-11-25T00:38:34.670Z,3.98
2023-11-25T00:38:45.150Z,3.98
2023-11-25T00:38:56.114Z,3.97
2023-11-25T00:39:06.872Z,4.00
2023-11-25T00:39:17.922Z,3.97
2023-11-25T00:39:28.886Z,4.01
2023-11-25T00:39:39.644Z,4.04
2023-11-25T00:39:50.692Z,3.98
2023-11-25T00:40:01.827Z,3.96
2023-11-25T00:40:12.662Z,4.00
2023-11-25T00:40:23.716Z,4.01
2023-11-25T00:40:34.742Z,3.98
2023-11-25T00:40:45.518Z,3.92
2023-11-25T00:40:56.538Z,3.96
2023-11-25T00:41:07.501Z,3.98
2023-11-25T00:41:18.352Z,4.00
2023-11-25T00:41:29.401Z,3.96
2023-11-25T00:41:40.360Z,4.00
2023-11-25T00:41:51.137Z,4.03
2023-11-25T00:42:02.180Z,3.97
2023-11-25T00:42:13.152Z,3.97
2023-11-25T00:42:23.911Z,4.01
2023-11-25T00:42:34.962Z,3.97
2023-11-25T00:42:45.916Z,3.96
2023-11-25T00:42:56.687Z,4.03
2023-11-25T00:43:07.819Z,3.97
2023-11-25T00:43:18.784Z,3.96
2023-11-25T00:43:29.589Z,4.00
2023-11-25T00:43:40.751Z,3.97
2023-11-25T00:43:51.224Z,4.01
2023-11-25T00:44:01.918Z,3.97
2023-11-25T00:44:12.970Z,3.92
2023-11-25T00:44:23.934Z,3.97
2023-11-25T00:44:34.715Z,3.98
2023-11-25T00:44:45.740Z,3.92
2023-11-25T00:44:56.707Z,4.01
2023-11-25T00:45:07.595Z,3.98
2023-11-25T00:45:18.031Z,3.96
2023-11-25T00:45:29.001Z,4.01
2023-11-25T00:45:39.769Z,3.92
2023-11-25T00:45:50.938Z,3.94
2023-11-25T00:46:01.992Z,3.90
2023-11-25T00:46:12.863Z,4.01
2023-11-25T00:46:23.447Z,3.97
2023-11-25T00:46:34.521Z,3.92
2023-11-25T00:46:45.388Z,3.98
2023-11-25T00:46:55.965Z,3.92
2023-11-25T00:47:07.041Z,3.97
2023-11-25T00:47:17.873Z,3.96
2023-11-25T00:47:28.426Z,3.92
2023-11-25T00:47:39.411Z,3.94
2023-11-25T00:47:50.223Z,3.98
2023-11-25T00:48:01.340Z,3.94
2023-11-25T00:48:12.407Z,3.90
2023-11-25T00:48:23.189Z,3.90
2023-11-25T00:48:34.251Z,3.90
2023-11-25T00:48:45.221Z,3.96
2023-11-25T00:48:55.943Z,3.94
2023-11-25T00:49:07.010Z,3.89
2023-11-25T00:49:17.965Z,3.90
2023-11-25T00:49:28.761Z,3.94
2023-11-25T00:49:39.849Z,3.96
2023-11-25T00:49:50.832Z,3.92
2023-11-25T00:50:01.604Z,3.97
2023-11-25T00:50:12.783Z,3.90
2023-11-25T00:50:23.194Z,3.94
2023-11-25T00:50:33.962Z,3.97
2023-11-25T00:50:45.018Z,4.00
2023-11-25T00:50:55.982Z,3.97
2023-11-25T00:51:06.736Z,3.89
2023-11-25T00:51:17.777Z,3.97
2023-11-25T00:51:28.774Z,3.92
2023-11-25T00:51:39.539Z,3.94
2023-11-25T00:51:50.599Z,3.97
2023-11-25T00:52:01.743Z,3.94
2023-11-25T00:52:12.528Z,3.97
2023-11-25T00:52:23.071Z,3.94
2023-11-25T00:52:34.044Z,3.92
2023-11-25T00:52:44.831Z,3.94
2023-11-25T00:52:55.828Z,3.92
2023-11-25T00:53:06.791Z,3.96
2023-11-25T00:53:17.552Z,3.96
2023-11-25T00:53:28.604Z,3.85
2023-11-25T00:53:39.586Z,3.90
2023-11-25T00:53:50.352Z,3.92
2023-11-25T00:54:01.377Z,3.89
2023-11-25T00:54:12.342Z,3.88
2023-11-25T00:54:23.107Z,3.89
2023-11-25T00:54:34.152Z,3.89
2023-11-25T00:54:45.116Z,3.85
2023-11-25T00:54:55.882Z,3.86
2023-11-25T00:55:07.020Z,3.88
2023-11-25T00:55:17.575Z,3.89
2023-11-25T00:55:28.351Z,3.96
2023-11-25T00:55:39.397Z,3.89
2023-11-25T00:55:50.402Z,3.89
2023-11-25T00:56:01.139Z,3.86
2023-11-25T00:56:12.182Z,3.88
2023-11-25T00:56:23.147Z,3.80
2023-11-25T00:56:33.971Z,3.89
2023-11-25T00:56:44.473Z,3.88
2023-11-25T00:56:55.445Z,3.89
2023-11-25T00:57:06.217Z,3.86
2023-11-25T00:57:17.269Z,3.86
2023-11-25T00:57:28.225Z,3.86
2023-11-25T00:57:39.019Z,3.88
2023-11-25T00:57:50.041Z,3.86
2023-11-25T00:58:00.996Z,3.86
2023-11-25T00:58:11.787Z,3.88
2023-11-25T00:58:22.853Z,3.85
2023-11-25T00:58:33.961Z,3.83
2023-11-25T00:58:44.784Z,3.80
2023-11-25T00:58:55.248Z,3.86
2023-11-25T00:59:06.221Z,3.85
2023-11-25T00:59:16.982Z,3.86
2023-11-25T00:59:28.031Z,3.88
2023-11-25T00:59:38.992Z,3.86
2023-11-25T00:59:49.758Z,3.79
2023-11-25T01:00:00.806Z,3.88
2023-11-25T01:00:11.793Z,3.83
2023-11-25T01:00:22.538Z,3.86
2023-11-25T01:00:33.575Z,3.83
2023-11-25T01:00:44.550Z,3.88
2023-11-25T01:00:55.310Z,3.83
2023-11-25T01:01:05.935Z,3.82
2023-11-25T01:01:16.933Z,3.80
2023-11-25T01:01:27.743Z,3.88
2023-11-25T01:01:38.295Z,3.86
2023-11-25T01:01:49.413Z,3.80
2023-11-25T01:02:00.276Z,3.85
2023-11-25T01:02:10.825Z,3.83
2023-11-25T01:02:21.895Z,3.85
2023-11-25T01:02:32.835Z,3.88
2023-11-25T01:02:43.506Z,3.80
2023-11-25T01:02:54.072Z,3.82
2023-11-25T01:03:04.998Z,3.88
2023-11-25T01:03:15.567Z,3.86
2023-11-25T01:03:26.593Z,3.83
2023-11-25T01:03:37.497Z,3.88
2023-11-25T01:03:48.084Z,3.85
2023-11-25T01:03:58.668Z,3.86
2023-11-25T01:04:09.464Z,3.86
2023-11-25T01:04:20.500Z,3.88
2023-11-25T01:04:31.464Z,3.85
2023-11-25T01:04:42.300Z,3.90
2023-11-25T01:04:52.805Z,3.82
2023-11-25T01:05:03.774Z,3.80
2023-11-25T01:05:14.563Z,3.85
2023-11-25T01:05:25.576Z,3.83
2023-11-25T01:05:36.547Z,3.82
2023-11-25T01:05:47.337Z,3.80
2023-11-25T01:05:58.382Z,3.88
2023-11-25T01:06:09.352Z,3.85
2023-11-25T01:06:20.109Z,3.86
2023-11-25T01:06:31.167Z,3.83
2023-11-25T01:06:42.129Z,3.82
2023-11-25T01:06:52.908Z,3.83
2023-11-25T01:07:03.956Z,3.85
2023-11-25T01:07:15.013Z,3.83
2023-11-25T01:07:25.766Z,3.83
2023-11-25T01:07:36.293Z,3.80
2023-11-25T01:07:47.261Z,3.80
2023-11-25T01:07:58.018Z,3.83
2023-11-25T01:08:09.061Z,3.82
2023-11-25T01:08:20.024Z,3.85
2023-11-25T01:08:30.788Z,3.82
2023-11-25T01:08:41.835Z,3.80
2023-11-25T01:08:52.811Z,3.82
2023-11-25T01:09:03.568Z,3.85
2023-11-25T01:09:14.607Z,3.82
2023-11-25T01:09:25.595Z,3.80
2023-11-25T01:09:36.344Z,3.82
2023-11-25T01:09:47.391Z,3.83
2023-11-25T01:09:58.361Z,3.80
2023-11-25T01:10:09.138Z,3.82
2023-11-25T01:10:20.197Z,3.72
2023-11-25T01:10:31.174Z,3.75
2023-11-25T01:10:41.971Z,3.75
2023-11-25T01:10:52.478Z,3.83
2023-11-25T01:11:03.446Z,3.78
2023-11-25T01:11:14.212Z,3.82
2023-11-25T01:11:25.254Z,3.83
2023-11-25T01:11:36.222Z,3.80
2023-11-25T01:11:47.005Z,3.80
2023-11-25T01:11:58.039Z,3.78
2023-11-25T01:12:09.008Z,3.79
2023-11-25T01:12:19.792Z,3.76
2023-11-25T01:12:30.836Z,3.78
2023-11-25T01:12:41.799Z,3.75
2023-11-25T01:12:52.566Z,3.72
2023-11-25T01:13:03.641Z,3.76
2023-11-25T01:13:14.618Z,3.76
2023-11-25T01:13:25.384Z,3.78
2023-11-25T01:13:36.472Z,3.70
2023-11-25T01:13:47.401Z,3.80
2023-11-25T01:13:58.179Z,3.76
2023-11-25T01:14:09.321Z,3.72
2023-11-25T01:14:20.290Z,3.72
2023-11-25T01:14:31.013Z,3.80
2023-11-25T01:14:42.056Z,3.72
2023-11-25T01:14:53.019Z,3.80
2023-11-25T01:15:03.793Z,3.75
2023-11-25T01:15:14.836Z,3.76
2023-11-25T01:15:25.803Z,3.71
2023-11-25T01:15:36.557Z,3.76
2023-11-25T01:15:47.650Z,3.71
2023-11-25T01:15:58.619Z,3.71
2023-11-25T01:16:09.484Z,3.79
2023-11-25T01:16:20.092Z,3.71
2023-11-25T01:16:30.584Z,3.72
2023-11-25T01:16:41.430Z,3.76
2023-11-25T01:16:52.093Z,3.72
2023-11-25T01:17:02.657Z,3.67
2023-11-25T01:17:13.498Z,3.68
2023-11-25T01:17:23.997Z,3.76
2023-11-25T01:17:34.974Z,3.70
2023-11-25T01:17:45.826Z,3.72
2023-11-25T01:17:56.324Z,3.71
2023-11-25T01:18:07.290Z,3.72
2023-11-25T01:18:18.067Z,3.71
2023-11-25T01:18:29.083Z,3.75
2023-11-25T01:18:40.052Z,3.70
2023-11-25T01:18:51.098Z,3.68
2023-11-25T01:19:01.602Z,3.72
2023-11-25T01:19:12.594Z,3.72
2023-11-25T01:19:23.349Z,3.71
2023-11-25T01:19:34.431Z,3.72
2023-11-25T01:19:45.431Z,3.68
2023-11-25T01:19:56.152Z,3.71
2023-11-25T01:20:07.208Z,3.71
2023-11-25T01:20:18.163Z,3.68
2023-11-25T01:20:28.923Z,3.70
2023-11-25T01:20:39.972Z,3.71
2023-11-25T01:20:50.932Z,3.67
2023-11-25T01:21:01.704Z,3.64
2023-11-25T01:21:12.767Z,3.65
2023-11-25T01:21:23.712Z,3.64
2023-11-25T01:21:34.480Z,3.70
2023-11-25T01:21:45.522Z,3.70
2023-11-25T01:21:56.497Z,3.67
2023-11-25T01:22:07.329Z,3.67
2023-11-25T01:22:17.817Z,3.65
2023-11-25T01:22:28.822Z,3.72
2023-11-25T01:22:39.621Z,3.67
2023-11-25T01:22:50.631Z,3.67
2023-11-25T01:23:01.573Z,3.68
2023-11-25T01:23:12.335Z,3.65
2023-11-25T01:23:23.381Z,3.70
2023-11-25T01:23:34.344Z,3.71
2023-11-25T01:23:45.111Z,3.68
2023-11-25T01:23:56.165Z,3.64
2023-11-25T01:24:07.134Z,3.67
2023-11-25T01:24:17.910Z,3.65
2023-11-25T01:24:28.938Z,3.62
2023-11-25T01:24:39.905Z,3.67
2023-11-25T01:24:50.684Z,3.68
2023-11-25T01:25:01.728Z,3.70
2023-11-25T01:25:12.787Z,3.61
2023-11-25T01:25:23.548Z,3.70
2023-11-25T01:25:34.708Z,3.60
2023-11-25T01:25:45.154Z,3.62
2023-11-25T01:25:55.898Z,3.70
2023-11-25T01:26:06.961Z,3.65
2023-11-25T01:26:17.922Z,3.65
2023-11-25T01:26:28.697Z,3.67
2023-11-25T01:26:39.728Z,3.67
2023-11-25T01:26:50.697Z,3.64
2023-11-25T01:27:01.485Z,3.70
2023-11-25T01:27:12.509Z,3.67
2023-11-25T01:27:23.478Z,3.67
2023-11-25T01:27:34.256Z,3.65
2023-11-25T01:27:45.296Z,3.61
2023-11-25T01:27:56.272Z,3.64
2023-11-25T01:28:07.049Z,3.71
2023-11-25T01:28:18.096Z,3.64
2023-11-25T01:28:29.080Z,3.65
2023-11-25T01:28:39.887Z,3.67
2023-11-25T01:28:50.880Z,3.70
2023-11-25T01:29:01.841Z,3.62
2023-11-25T01:29:12.604Z,3.65
2023-11-25T01:29:23.650Z,3.62
2023-11-25T01:29:34.629Z,3.60
2023-11-25T01:29:45.389Z,3.64
2023-11-25T01:29:56.433Z,3.61
2023-11-25T01:30:07.408Z,3.61
2023-11-25T01:30:18.196Z,3.65
2023-11-25T01:30:29.209Z,3.62
2023-11-25T01:30:40.176Z,3.64
2023-11-25T01:30:50.943Z,3.64
2023-11-25T01:31:01.988Z,3.65
2023-11-25T01:31:12.975Z,3.64
2023-11-25T01:31:23.771Z,3.70
2023-11-25T01:31:34.939Z,3.71
2023-11-25T01:31:45.377Z,3.62
2023-11-25T01:31:56.105Z,3.65
2023-11-25T01:32:07.169Z,3.57
2023-11-25T01:32:18.126Z,3.62
2023-11-25T01:32:28.915Z,3.61
2023-11-25T01:32:39.971Z,3.60
2023-11-25T01:32:50.919Z,3.61
2023-11-25T01:33:01.697Z,3.62
2023-11-25T01:33:12.722Z,3.61
2023-11-25T01:33:23.693Z,3.64
2023-11-25T01:33:34.456Z,3.58
2023-11-25T01:33:45.545Z,3.58
2023-11-25T01:33:56.523Z,3.62
2023-11-25T01:34:07.293Z,3.60
2023-11-25T01:34:18.414Z,3.58
2023-11-25T01:34:29.438Z,3.58
2023-11-25T01:34:40.286Z,3.64
2023-11-25T01:34:50.812Z,3.60
2023-11-25T01:35:01.795Z,3.61
2023-11-25T01:35:12.610Z,3.60
2023-11-25T01:35:23.133Z,3.57
2023-11-25T01:35:34.069Z,3.57
2023-11-25T01:35:48.193Z,3.58
2023-11-25T01:35:55.618Z,3.61
2023-11-25T01:36:06.602Z,3.60
2023-11-25T01:36:17.346Z,3.58
2023-11-25T01:36:28.397Z,3.57
2023-11-25T01:36:39.359Z,3.58
2023-11-25T01:36:50.125Z,3.60
2023-11-25T01:37:01.172Z,3.60
2023-11-25T01:37:12.159Z,3.61
2023-11-25T01:37:22.959Z,3.58
2023-11-25T01:37:34.045Z,3.58
2023-11-25T01:37:45.031Z,3.57
2023-11-25T01:37:55.752Z,3.65
2023-11-25T01:38:06.802Z,3.58
2023-11-25T01:38:17.759Z,3.57
2023-11-25T01:38:28.524Z,3.57
2023-11-25T01:38:39.586Z,3.60
2023-11-25T01:38:50.542Z,3.58
2023-11-25T01:39:01.300Z,3.61
2023-11-25T01:39:12.342Z,3.62
2023-11-25T01:39:23.309Z,3.58
2023-11-25T01:39:34.074Z,3.60
2023-11-25T01:39:45.118Z,3.61
2023-11-25T01:39:56.082Z,3.60
2023-11-25T01:40:07.147Z,3.53
2023-11-25T01:40:17.693Z,3.57
2023-11-25T01:40:28.651Z,3.64
2023-11-25T01:40:39.447Z,3.61
2023-11-25T01:40:50.456Z,3.61
2023-11-25T01:41:03.808Z,3.61
2023-11-25T01:41:12.217Z,3.64
2023-11-25T01:41:23.269Z,3.60
2023-11-25T01:41:34.283Z,3.60
2023-11-25T01:41:45.366Z,3.58
2023-11-25T01:41:56.070Z,3.58
2023-11-25T01:42:06.988Z,3.60
2023-11-25T01:42:17.771Z,3.61
2023-11-25T01:42:28.812Z,3.61
2023-11-25T01:42:39.781Z,3.57
2023-11-25T01:42:50.862Z,3.62
2023-11-25T01:43:01.908Z,3.61
2023-11-25T01:43:12.899Z,3.60
2023-11-25T01:43:23.657Z,3.60
2023-11-25T01:43:34.740Z,3.58
2023-11-25T01:43:45.724Z,3.62
2023-11-25T01:43:56.460Z,3.64
2023-11-25T01:44:07.478Z,3.60
2023-11-25T01:44:18.441Z,3.64
2023-11-25T01:44:29.212Z,3.57
2023-11-25T01:44:40.252Z,3.58
2023-11-25T01:44:51.219Z,3.61
2023-11-25T01:45:01.985Z,3.52
2023-11-25T01:45:13.027Z,3.64
2023-11-25T01:45:23.995Z,3.61
2023-11-25T01:45:34.757Z,3.58
2023-11-25T01:45:46.081Z,3.57
2023-11-25T01:45:56.672Z,3.57
2023-11-25T01:46:07.472Z,3.61
2023-11-25T01:46:18.571Z,3.60
2023-11-25T01:46:29.558Z,3.57
2023-11-25T01:46:40.549Z,3.60
2023-11-25T01:46:51.149Z,3.62
2023-11-25T01:47:02.154Z,3.60
2023-11-25T01:47:12.929Z,3.60
2023-11-25T01:47:23.983Z,3.57
2023-11-25T01:47:34.967Z,3.58
2023-11-25T01:47:45.752Z,3.61
2023-11-25T01:47:56.789Z,3.57
2023-11-25T01:48:07.825Z,3.57
2023-11-25T01:48:18.539Z,3.58
2023-11-25T01:48:29.583Z,3.57
2023-11-25T01:48:40.556Z,3.58
2023-11-25T01:48:51.312Z,3.61
2023-11-25T01:49:02.365Z,3.58
2023-11-25T01:49:14.139Z,3.60
2023-11-25T01:49:24.497Z,3.58
2023-11-25T01:49:34.986Z,3.54
2023-11-25T01:49:45.960Z,3.57
2023-11-25T01:49:56.727Z,3.58
2023-11-25T01:50:07.920Z,3.62
2023-11-25T01:50:18.321Z,3.62
2023-11-25T01:50:29.097Z,3.57
2023-11-25T01:50:40.128Z,3.58
2023-11-25T01:50:51.095Z,3.61
2023-11-25T01:51:01.869Z,3.60
2023-11-25T01:51:12.911Z,3.54
2023-11-25T01:51:23.870Z,3.58
2023-11-25T01:51:34.634Z,3.53
2023-11-25T01:51:45.697Z,3.58
2023-11-25T01:51:56.672Z,3.58
2023-11-25T01:52:07.418Z,3.61
2023-11-25T01:52:18.503Z,3.58
2023-11-25T01:52:29.484Z,3.58
2023-11-25T01:52:40.268Z,3.57
2023-11-25T01:52:50.788Z,3.52
2023-11-25T01:53:01.761Z,3.54
2023-11-25T01:53:12.516Z,3.60
2023-11-25T01:53:23.565Z,3.62
2023-11-25T01:53:34.527Z,3.57
2023-11-25T01:53:45.293Z,3.54
2023-11-25T01:53:56.343Z,3.61
2023-11-25T01:54:07.312Z,3.53
2023-11-25T01:54:18.152Z,3.57
2023-11-25T01:54:28.631Z,3.53
2023-11-25T01:54:39.613Z,3.54
2023-11-25T01:54:50.360Z,3.60
2023-11-25T01:55:01.406Z,3.61
2023-11-25T01:55:12.431Z,3.54
2023-11-25T01:55:23.372Z,3.58
2023-11-25T01:55:33.947Z,3.53
2023-11-25T01:55:44.915Z,3.53
2023-11-25T01:55:55.659Z,3.57
2023-11-25T01:56:06.721Z,3.52
2023-11-25T01:56:17.670Z,3.50
2023-11-25T01:56:28.429Z,3.53
2023-11-25T01:56:39.475Z,3.57
2023-11-25T01:56:50.437Z,3.53
2023-11-25T01:57:01.222Z,3.53
2023-11-25T01:57:12.245Z,3.52
2023-11-25T01:57:23.223Z,3.53
2023-11-25T01:57:36.705Z,3.50
2023-11-25T01:57:44.575Z,3.54
2023-11-25T01:57:55.534Z,3.53
2023-11-25T01:58:06.363Z,3.61
2023-11-25T01:58:17.385Z,3.54
2023-11-25T01:58:28.348Z,3.52
2023-11-25T01:58:39.105Z,3.58
2023-11-25T01:58:50.144Z,3.52
2023-11-25T01:59:01.093Z,3.52
2023-11-25T01:59:11.892Z,3.57
2023-11-25T01:59:22.896Z,3.50
2023-11-25T01:59:33.912Z,3.52
2023-11-25T01:59:44.628Z,3.53
2023-11-25T01:59:55.673Z,3.50
2023-11-25T02:00:06.645Z,3.49
2023-11-25T02:00:17.406Z,3.49
2023-11-25T02:00:28.449Z,3.46
2023-11-25T02:00:39.413Z,3.43
2023-11-25T02:00:50.177Z,3.49
2023-11-25T02:01:01.248Z,3.47
2023-11-25T02:01:12.229Z,3.46
2023-11-25T02:01:23.021Z,3.46
2023-11-25T02:01:34.110Z,3.52
2023-11-25T02:01:45.285Z,3.47
2023-11-25T02:01:56.528Z,3.43
2023-11-25T02:02:07.280Z,3.44
2023-11-25T02:02:17.797Z,3.42
2023-11-25T02:02:28.667Z,3.46
2023-11-25T02:02:39.376Z,3.44
2023-11-25T02:02:50.113Z,3.43
2023-11-25T02:03:01.129Z,3.39
2023-11-25T02:03:11.737Z,3.42
2023-11-25T02:03:22.702Z,3.36
2023-11-25T02:03:33.481Z,3.46
2023-11-25T02:03:44.549Z,3.42
2023-11-25T02:03:55.486Z,3.42
2023-11-25T02:04:06.341Z,3.43
2023-11-25T02:04:16.890Z,3.39
2023-11-25T02:04:27.882Z,3.42
2023-11-25T02:04:38.718Z,3.40
2023-11-25T02:04:49.299Z,3.33
2023-11-25T02:05:00.378Z,3.42
2023-11-25T02:05:11.194Z,3.42
2023-11-25T02:05:22.404Z,3.39
2023-11-25T02:05:32.885Z,3.40
2023-11-25T02:05:43.651Z,3.36
2023-11-25T02:05:54.685Z,3.43
2023-11-25T02:06:05.652Z,3.36
2023-11-25T02:06:16.418Z,3.39
2023-11-25T02:06:27.458Z,3.40
2023-11-25T02:06:38.428Z,3.42
2023-11-25T02:06:49.189Z,3.40
2023-11-25T02:07:00.228Z,3.42
2023-11-25T02:07:11.204Z,3.43
2023-11-25T02:07:22.006Z,3.36
2023-11-25T02:07:33.050Z,3.36
2023-11-25T02:07:44.021Z,3.39
2023-11-25T02:07:54.766Z,3.39
2023-11-25T02:08:05.801Z,3.36
2023-11-25T02:08:16.766Z,3.39
2023-11-25T02:08:27.529Z,3.40
2023-11-25T02:08:38.579Z,3.36
2023-11-25T02:08:49.602Z,3.39
2023-11-25T02:09:00.323Z,3.34
2023-11-25T02:09:11.362Z,3.36
2023-11-25T02:09:22.315Z,3.34
2023-11-25T02:09:33.085Z,3.39
2023-11-25T02:09:44.130Z,3.34
2023-11-25T02:09:55.089Z,3.36
2023-11-25T02:10:05.946Z,3.33
2023-11-25T02:10:16.499Z,3.40
2023-11-25T02:10:27.503Z,3.27
2023-11-25T02:10:38.301Z,3.34
2023-11-25T02:10:49.320Z,3.31
2023-11-25T02:11:00.266Z,3.33
2023-11-25T02:11:11.049Z,3.36
2023-11-25T02:11:22.090Z,3.33
2023-11-25T02:11:33.057Z,3.36
2023-11-25T02:11:43.810Z,3.39
2023-11-25T02:11:54.863Z,3.31
2023-11-25T02:12:05.831Z,3.30
2023-11-25T02:12:16.588Z,3.36
2023-11-25T02:12:27.637Z,3.33
2023-11-25T02:12:38.612Z,3.33
2023-11-25T02:12:49.375Z,3.28
2023-11-25T02:13:00.429Z,3.30
2023-11-25T02:13:11.444Z,3.25
2023-11-25T02:13:23.325Z,3.36
2023-11-25T02:13:33.030Z,3.39
2023-11-25T02:13:44.009Z,3.34
2023-11-25T02:13:54.793Z,3.39
2023-11-25T02:14:05.815Z,3.34
2023-11-25T02:14:16.844Z,3.36
2023-11-25T02:14:27.844Z,3.39
2023-11-25T02:14:38.558Z,3.39
2023-11-25T02:14:49.525Z,3.30
2023-11-25T02:15:00.289Z,3.30
2023-11-25T02:15:11.344Z,3.33
2023-11-25T02:15:22.299Z,3.34
2023-11-25T02:15:33.062Z,3.33
2023-11-25T02:15:44.111Z,3.25
2023-11-25T02:15:55.082Z,3.27
2023-11-25T02:16:05.964Z,3.30
2023-11-25T02:16:16.560Z,3.30
2023-11-25T02:16:27.631Z,3.27
2023-11-25T02:16:38.430Z,3.36
2023-11-25T02:16:49.565Z,3.28
2023-11-25T02:17:00.070Z,3.30
2023-11-25T02:17:10.835Z,3.25
2023-11-25T02:17:21.835Z,3.27
2023-11-25T02:17:32.814Z,3.27
2023-11-25T02:17:43.935Z,3.27
2023-11-25T02:17:54.475Z,3.25
2023-11-25T02:18:05.491Z,3.30
2023-11-25T02:18:16.260Z,3.28
2023-11-25T02:18:27.314Z,3.30
2023-11-25T02:18:38.282Z,3.27
2023-11-25T02:18:49.056Z,3.28
2023-11-25T02:19:00.086Z,3.23
2023-11-25T02:19:11.086Z,3.23
2023-11-25T02:19:21.850Z,3.25
2023-11-25T02:19:32.951Z,3.24
2023-11-25T02:19:43.939Z,3.28
2023-11-25T02:19:54.656Z,3.21
2023-11-25T02:20:05.718Z,3.23
2023-11-25T02:20:16.675Z,3.24
2023-11-25T02:20:27.440Z,3.24
2023-11-25T02:20:38.481Z,3.24
2023-11-25T02:20:53.137Z,3.23
2023-11-25T02:21:00.317Z,3.21
2023-11-25T02:21:11.353Z,3.24
2023-11-25T02:21:22.322Z,3.21
2023-11-25T02:21:33.075Z,3.24
2023-11-25T02:21:44.119Z,3.20
2023-11-25T02:21:55.070Z,3.20
2023-11-25T02:22:05.862Z,3.16
2023-11-25T02:22:16.915Z,3.23
2023-11-25T02:22:27.921Z,3.12
2023-11-25T02:22:38.725Z,3.20
2023-11-25T02:22:49.210Z,3.13
2023-11-25T02:23:00.218Z,3.15
2023-11-25T02:23:10.989Z,3.16
2023-11-25T02:23:22.043Z,3.15
2023-11-25T02:23:33.007Z,3.16
2023-11-25T02:23:43.776Z,3.12
2023-11-25T02:23:54.823Z,3.13
2023-11-25T02:24:05.785Z,3.13
2023-11-25T02:24:16.557Z,3.15
2023-11-25T02:24:28.048Z,3.09
2023-11-25T02:24:38.187Z,3.16
2023-11-25T02:24:48.964Z,3.16
2023-11-25T02:24:59.999Z,3.12